Holcomb, New York
Current Conditions -  °F | °C
As of 5:54 AM on Friday 28 Nov 2014 (Local Time) from KROC Reporting Station
Light Snow Light Snow  
Wind Chill: 14°   Ceiling: 4200
Heat Index: 25°   Visibility: 9mi
Dew Point: 15°   Wind: 13mph
Humidity: 66%   Direction: 290°WNW
Pressure: 30.19"   Gusts: NA
Location:  42.876°N, 77.4636°W
Report Text: KROC 281054Z 29011KT 9SM -SN BKN042 OVC075 M04/M09 A3019 RMK AO2 SLP236 P0000 T10391094
Loading
Personal Weather Stations






























Interactive Weather Map New forecast layout! Learn more

10-Day Weather Forecast

Advertisements
Track Severe Weather on mobile